Time;durP1;ratioP1;P1;durP2;ratioP2;P2;SDS_P1;SDS_P2;PMS_P1;PMS_P2;Temp;Humidity;BMP_temperature;BMP_pressure;BME280_temperature;BME280_humidity;BME280_pressure;Samples;Min_cycle;Max_cycle;Signal;HPM_P1;HPM_P2
2022/01/21 00:00:25;;;;;;;1.20;0.63;;;-1.00;91.50;;;;;;5052883;28;20028;-72
2022/01/21 00:02:51;;;;;;;0.80;0.80;;;-1.00;91.50;;;;;;5052598;28;20025;-72
2022/01/21 00:05:18;;;;;;;1.95;0.95;;;-1.00;91.50;;;;;;5052468;28;20034;-72
2022/01/21 00:07:44;;;;;;;4.20;0.93;;;-1.00;91.50;;;;;;5052401;28;20033;-72
2022/01/21 00:10:11;;;;;;;3.00;0.70;;;-1.00;91.50;;;;;;5052329;28;20056;-72
2022/01/21 00:12:37;;;;;;;3.67;0.90;;;-1.00;91.50;;;;;;5052600;28;20106;-72
2022/01/21 00:15:08;;;;;;;3.03;0.90;;;-1.10;91.40;;;;;;5052122;28;20481;-72
2022/01/21 00:17:34;;;;;;;2.20;0.80;;;-1.10;91.60;;;;;;5052324;28;20139;-72
2022/01/21 00:30:58;;;;;;;2.92;1.00;;;-1.10;91.40;;;;;;5052240;28;20035;-72
2022/01/21 00:33:24;;;;;;;1.75;0.90;;;-1.10;91.40;;;;;;5052042;28;20037;-72
2022/01/21 00:35:50;;;;;;;1.55;0.80;;;-1.10;91.30;;;;;;5052363;28;20487;-72
2022/01/21 00:38:16;;;;;;;4.18;0.90;;;-1.10;91.30;;;;;;5051828;28;20090;-72
2022/01/21 00:40:41;;;;;;;0.70;0.70;;;-1.20;91.20;;;;;;5052174;28;20440;-72
2022/01/21 00:45:39;;;;;;;2.67;0.90;;;-1.20;91.10;;;;;;5052383;28;20025;-72
2022/01/21 00:48:05;;;;;;;2.35;0.93;;;-1.20;91.20;;;;;;5051708;28;20128;-72
2022/01/21 00:50:31;;;;;;;1.10;0.77;;;-1.20;91.00;;;;;;5051855;28;20104;-72
2022/01/21 00:52:57;;;;;;;0.85;0.80;;;-1.20;91.00;;;;;;5051733;28;20043;-72
2022/01/21 00:55:23;;;;;;;4.38;1.05;;;-1.20;90.90;;;;;;5051746;28;20029;-72
2022/01/21 00:57:49;;;;;;;5.10;1.20;;;-1.30;90.80;;;;;;5051898;28;20456;-72
2022/01/21 01:00:15;;;;;;;2.53;0.90;;;-1.20;90.80;;;;;;5051938;28;20025;-72
2022/01/21 01:02:41;;;;;;;1.30;0.80;;;-1.30;90.90;;;;;;5051996;28;20028;-72
2022/01/21 01:05:09;;;;;;;2.55;0.80;;;-1.30;91.00;;;;;;5051582;28;20480;-72
2022/01/21 01:07:35;;;;;;;1.00;0.90;;;-1.20;91.00;;;;;;5051671;28;20025;-72
2022/01/21 01:10:03;;;;;;;2.58;0.90;;;-1.20;90.80;;;;;;5051659;28;20541;-72
2022/01/21 01:20:29;;;;;;;0.93;0.77;;;-1.30;90.90;;;;;;5051795;28;20499;-72
2022/01/21 01:23:06;;;;;;;2.67;0.90;;;-1.30;90.80;;;;;;5051501;28;20055;-72
2022/01/21 01:28:16;;;;;;;2.53;1.02;;;-1.30;90.80;;;;;;5051661;28;20070;-73
2022/01/21 01:30:42;;;;;;;3.03;0.90;;;-1.30;90.70;;;;;;5051567;28;20451;-73
2022/01/21 01:33:11;;;;;;;1.33;0.98;;;-1.40;90.70;;;;;;5051450;28;20120;-73
2022/01/21 01:35:39;;;;;;;2.63;1.08;;;-1.30;90.60;;;;;;5051524;28;20051;-73
2022/01/21 01:41:03;;;;;;;1.98;0.68;;;-1.40;90.50;;;;;;5051871;28;20154;-73
2022/01/21 01:51:27;;;;;;;0.98;0.88;;;-1.40;90.40;;;;;;5051291;28;20029;-73
2022/01/21 01:54:03;;;;;;;1.55;0.85;;;-1.40;90.60;;;;;;5051503;28;20123;-73
2022/01/21 01:56:33;;;;;;;3.30;0.85;;;-1.50;90.50;;;;;;5051496;28;20029;-73
2022/01/21 01:58:59;;;;;;;0.90;0.82;;;-1.50;90.70;;;;;;5051625;28;20049;-73
2022/01/21 02:01:24;;;;;;;1.00;0.90;;;-1.50;90.60;;;;;;5051485;28;20480;-73
2022/01/21 02:03:50;;;;;;;3.15;0.80;;;-1.50;90.60;;;;;;5055184;28;20025;-73
2022/01/21 02:06:16;;;;;;;1.63;0.77;;;-1.50;90.70;;;;;;5054867;28;20063;-73
2022/01/21 02:08:42;;;;;;;1.83;0.77;;;-1.50;90.80;;;;;;5054930;28;20112;-73
2022/01/21 02:11:08;;;;;;;1.23;0.90;;;-1.60;90.60;;;;;;5054923;28;20388;-73
2022/01/21 02:13:41;;;;;;;3.97;1.00;;;-1.60;90.60;;;;;;5054906;28;20114;-73
2022/01/21 02:16:32;;;;;;;1.58;0.85;;;-1.60;90.70;;;;;;5060462;28;20029;-72
2022/01/21 02:21:45;;;;;;;2.45;0.90;;;-1.60;90.60;;;;;;5054879;28;20723;-73
2022/01/21 02:55:47;;;;;;;1.38;0.90;;;-1.80;90.90;;;;;;5053937;28;20017;-72
2022/01/21 02:58:12;;;;;;;2.83;1.02;;;-1.80;90.80;;;;;;5054021;28;20025;-72
2022/01/21 03:00:38;;;;;;;1.02;0.88;;;-1.80;90.80;;;;;;5054050;28;20384;-71
2022/01/21 03:03:04;;;;;;;1.15;0.77;;;-1.80;90.90;;;;;;5053944;28;20468;-71
2022/01/21 03:39:10;;;;;;;4.30;1.23;;;-1.90;90.40;;;;;;5165471;22;20060;-67
2022/01/21 03:41:36;;;;;;;6.25;0.82;;;-1.90;90.40;;;;;;5052966;28;20079;-67
2022/01/21 03:44:01;;;;;;;2.75;1.02;;;-1.90;90.50;;;;;;5051705;28;20403;-66
2022/01/21 03:46:27;;;;;;;1.00;0.88;;;-1.90;90.60;;;;;;5052982;28;20048;-68
2022/01/21 03:48:53;;;;;;;1.05;0.95;;;-2.00;90.50;;;;;;5052730;28;20029;-67
2022/01/21 03:51:19;;;;;;;2.55;0.98;;;-2.00;90.60;;;;;;5052873;28;20017;-68
2022/01/21 03:53:46;;;;;;;2.40;0.90;;;-2.00;90.60;;;;;;5052557;28;20109;-68
2022/01/21 03:56:16;;;;;;;1.05;0.80;;;-2.00;90.60;;;;;;5052703;28;20032;-68
2022/01/21 03:58:42;;;;;;;1.35;0.75;;;-2.00;90.70;;;;;;5052498;28;20053;-67
2022/01/21 04:01:08;;;;;;;4.25;0.95;;;-2.00;90.60;;;;;;5052651;28;20033;-67
2022/01/21 04:03:34;;;;;;;1.58;0.70;;;-2.00;90.50;;;;;;5052348;28;20056;-67
2022/01/21 04:06:00;;;;;;;1.95;0.82;;;-2.00;90.50;;;;;;5052745;28;20083;-67
2022/01/21 04:08:26;;;;;;;3.25;0.70;;;-2.10;90.50;;;;;;5052376;28;20052;-67
2022/01/21 04:10:52;;;;;;;2.05;0.70;;;-2.10;90.60;;;;;;5052292;28;20056;-67
2022/01/21 04:13:20;;;;;;;6.72;1.00;;;-2.10;90.60;;;;;;5052224;28;20037;-67
2022/01/21 04:15:56;;;;;;;2.08;0.82;;;-2.10;90.90;;;;;;5052238;28;20404;-67
2022/01/21 04:18:23;;;;;;;1.95;0.90;;;-2.20;90.60;;;;;;5052283;28;20036;-67
2022/01/21 04:20:50;;;;;;;1.92;0.77;;;-2.20;90.70;;;;;;5052123;28;20040;-67
2022/01/21 04:23:18;;;;;;;0.98;0.70;;;-2.20;90.80;;;;;;5052512;28;20021;-72
2022/01/21 04:25:45;;;;;;;5.07;1.08;;;-2.20;90.70;;;;;;5051476;28;20052;-68
2022/01/21 04:28:11;;;;;;;1.77;0.90;;;-2.30;90.70;;;;;;5052066;28;20653;-68
2022/01/21 04:30:37;;;;;;;1.77;1.10;;;-2.20;90.70;;;;;;5052011;28;20021;-67
2022/01/21 04:33:04;;;;;;;3.50;1.00;;;-2.20;90.90;;;;;;5051972;28;20094;-67
2022/01/21 04:35:31;;;;;;;0.95;0.90;;;-2.20;90.80;;;;;;5050841;28;20029;-69
2022/01/21 04:38:01;;;;;;;3.25;1.23;;;-2.30;90.70;;;;;;5051841;28;20120;-69
2022/01/21 04:40:33;;;;;;;1.38;0.73;;;-2.30;90.80;;;;;;5052093;28;20029;-68
2022/01/21 04:48:29;;;;;;;1.23;0.73;;;-2.30;90.90;;;;;;5051922;28;20040;-68
2022/01/21 04:51:16;;;;;;;1.27;0.90;;;-2.30;90.80;;;;;;5051787;28;20040;-67
2022/01/21 04:53:44;;;;;;;1.42;0.90;;;-2.30;90.90;;;;;;5051930;28;20072;-68
2022/01/21 04:56:09;;;;;;;3.40;0.90;;;-2.30;91.00;;;;;;5051959;28;20032;-68
2022/01/21 04:58:35;;;;;;;1.48;0.90;;;-2.30;91.00;;;;;;5052106;28;20021;-68
2022/01/21 05:01:04;;;;;;;1.30;1.10;;;-2.30;90.90;;;;;;5051657;28;20021;-69
2022/01/21 05:03:31;;;;;;;2.10;0.80;;;-2.30;91.00;;;;;;5051728;28;20078;-69
2022/01/21 05:05:57;;;;;;;1.90;1.00;;;-2.40;91.00;;;;;;5051605;28;20025;-70
2022/01/21 05:08:28;;;;;;;0.95;0.77;;;-2.40;91.10;;;;;;5051874;28;20040;-69
2022/01/21 05:10:54;;;;;;;1.48;0.77;;;-2.40;91.40;;;;;;5051526;28;20518;-69
2022/01/21 05:13:24;;;;;;;1.25;0.80;;;-2.40;91.00;;;;;;5051578;28;20041;-71
2022/01/21 05:16:04;;;;;;;2.30;0.70;;;-2.40;90.90;;;;;;5051740;28;20021;-69
2022/01/21 05:18:30;;;;;;;2.90;1.10;;;-2.50;90.80;;;;;;5051449;28;20095;-69
2022/01/21 05:20:56;;;;;;;1.52;0.85;;;-2.50;91.10;;;;;;5051509;28;20049;-68
2022/01/21 05:23:23;;;;;;;1.92;0.82;;;-2.50;91.20;;;;;;5051436;28;20083;-69
2022/01/21 05:25:49;;;;;;;1.05;0.90;;;-2.50;91.30;;;;;;5051214;28;20461;-69
2022/01/21 05:28:15;;;;;;;1.80;1.15;;;-2.50;91.20;;;;;;5051247;28;20075;-68
2022/01/21 05:30:41;;;;;;;3.13;1.33;;;-2.50;91.40;;;;;;5051424;28;20018;-67
2022/01/21 05:33:07;;;;;;;3.75;0.90;;;-2.50;91.30;;;;;;5051234;28;20037;-70
2022/01/21 05:35:32;;;;;;;1.27;0.80;;;-2.50;91.20;;;;;;5051624;28;20017;-69
2022/01/21 05:37:58;;;;;;;3.28;1.10;;;-2.50;91.20;;;;;;5053715;28;20518;-68
2022/01/21 05:40:25;;;;;;;2.63;0.90;;;-2.50;91.20;;;;;;5055325;28;20056;-70
2022/01/21 05:42:51;;;;;;;1.05;0.90;;;-0.70;99.90;;;;;;5059329;28;20470;-71
2022/01/21 05:48:01;;;;;;;1.02;0.80;;;-0.50;93.00;;;;;;5074282;28;20043;-68
2022/01/21 05:50:26;;;;;;;4.22;1.00;;;-1.10;91.70;;;;;;5070875;28;20483;-69
2022/01/21 05:52:54;;;;;;;2.60;0.95;;;-1.60;91.60;;;;;;5070883;28;20062;-70
2022/01/21 05:55:20;;;;;;;2.80;1.33;;;-1.80;92.10;;;;;;5071685;28;20028;-68
2022/01/21 05:57:46;;;;;;;2.67;0.98;;;-2.00;93.10;;;;;;5073842;28;20029;-72
2022/01/21 06:00:13;;;;;;;2.47;1.42;;;-2.10;92.80;;;;;;5073772;28;20111;-67
2022/01/21 06:02:39;;;;;;;3.40;0.98;;;-2.20;92.90;;;;;;5071284;28;20427;-69
2022/01/21 06:05:05;;;;;;;5.97;0.90;;;-2.30;93.00;;;;;;5071350;28;20116;-69
2022/01/21 06:07:31;;;;;;;0.82;0.80;;;-2.40;93.00;;;;;;5075130;28;20021;-70
2022/01/21 06:09:57;;;;;;;4.45;1.25;;;-2.40;93.20;;;;;;5072476;28;20020;-69
2022/01/21 06:12:23;;;;;;;1.13;0.93;;;-2.40;93.10;;;;;;5073254;28;20170;-69
2022/01/21 06:14:49;;;;;;;4.93;0.93;;;-2.40;93.20;;;;;;5065588;28;20486;-70
2022/01/21 06:17:15;;;;;;;2.10;0.77;;;-2.40;93.20;;;;;;5068750;28;20029;-69
2022/01/21 06:19:41;;;;;;;1.10;1.00;;;-2.40;93.20;;;;;;5073363;28;20024;-69
2022/01/21 06:22:07;;;;;;;2.00;1.00;;;-2.50;93.20;;;;;;5074536;28;20025;-69
2022/01/21 06:24:33;;;;;;;1.05;0.90;;;-2.50;93.30;;;;;;5074095;28;20027;-70
2022/01/21 06:27:02;;;;;;;2.28;1.10;;;-2.50;93.30;;;;;;5074443;28;20016;-74
2022/01/21 06:29:28;;;;;;;2.13;0.95;;;-2.50;94.10;;;;;;5073193;28;20024;-72
2022/01/21 06:31:53;;;;;;;1.13;1.00;;;-2.40;99.90;;;;;;5074125;28;20027;-71
2022/01/21 06:34:19;;;;;;;2.95;0.85;;;-2.30;94.80;;;;;;5074270;28;20103;-72
2022/01/21 06:36:45;;;;;;;2.78;0.85;;;-2.40;93.90;;;;;;5074247;28;20017;-71
2022/01/21 06:39:11;;;;;;;2.50;1.05;;;-2.40;93.80;;;;;;5073864;28;20055;-66
2022/01/21 06:41:36;;;;;;;4.28;1.10;;;-2.50;93.70;;;;;;5074327;28;20479;-66
2022/01/21 06:44:04;;;;;;;3.88;1.00;;;-2.50;93.70;;;;;;5073812;28;20020;-66
2022/01/21 06:46:29;;;;;;;4.13;1.23;;;-2.50;93.70;;;;;;5074044;28;20613;-66
2022/01/21 06:48:55;;;;;;;6.22;1.05;;;-2.60;93.50;;;;;;5073105;28;20059;-66
2022/01/21 06:51:21;;;;;;;2.35;0.80;;;-2.60;93.50;;;;;;5073775;28;20028;-66
2022/01/21 06:53:46;;;;;;;2.45;1.05;;;-2.60;93.40;;;;;;5073628;28;20032;-65
2022/01/21 06:56:13;;;;;;;4.40;0.95;;;-2.50;93.40;;;;;;5073806;28;20075;-65
2022/01/21 06:58:39;;;;;;;4.22;1.00;;;-2.60;93.40;;;;;;5073582;28;20032;-65
2022/01/21 07:01:05;;;;;;;2.65;1.02;;;-2.60;93.40;;;;;;5073665;28;20078;-65
2022/01/21 07:03:31;;;;;;;2.10;1.25;;;-2.70;93.40;;;;;;5073588;28;20039;-66
2022/01/21 07:05:56;;;;;;;3.65;1.10;;;-2.70;93.50;;;;;;5073586;28;20021;-71
2022/01/21 07:08:22;;;;;;;3.00;0.90;;;-2.30;99.90;;;;;;5073497;28;20545;-70
2022/01/21 07:10:48;;;;;;;0.80;0.80;;;-1.50;99.90;;;;;;5073448;28;20020;-65
2022/01/21 07:13:14;;;;;;;2.33;1.10;;;-1.70;97.00;;;;;;5073639;28;20033;-66
2022/01/21 07:15:40;;;;;;;1.45;0.98;;;-2.10;94.60;;;;;;5073365;28;20020;-65
2022/01/21 07:18:06;;;;;;;3.42;1.02;;;-2.30;94.20;;;;;;5073074;28;20036;-66
2022/01/21 07:20:31;;;;;;;3.30;1.30;;;-2.40;94.30;;;;;;5073236;28;20059;-66
2022/01/21 07:22:57;;;;;;;2.78;1.25;;;-2.50;94.50;;;;;;5071583;28;20061;-66
2022/01/21 07:25:23;;;;;;;2.20;1.10;;;-2.70;94.50;;;;;;5072985;28;20094;-66
2022/01/21 07:27:49;;;;;;;2.15;0.88;;;-2.70;94.50;;;;;;5072806;28;20024;-66
2022/01/21 07:30:17;;;;;;;2.95;1.35;;;-2.70;94.70;;;;;;5072945;28;20052;-67
2022/01/21 07:32:43;;;;;;;3.53;1.17;;;-2.80;94.30;;;;;;5072714;28;20491;-68
2022/01/21 07:35:11;;;;;;;2.33;1.10;;;-2.80;94.20;;;;;;5072501;28;20063;-68
2022/01/21 07:37:38;;;;;;;2.95;1.20;;;-2.80;94.30;;;;;;5072490;28;20458;-66
2022/01/21 07:40:05;;;;;;;1.38;1.17;;;-2.80;94.20;;;;;;5072278;28;20025;-67
2022/01/21 07:42:32;;;;;;;2.50;1.13;;;-2.80;94.20;;;;;;5072937;28;20036;-66
2022/01/21 07:44:58;;;;;;;3.60;1.40;;;-2.90;94.20;;;;;;5072479;28;20029;-68
2022/01/21 07:47:24;;;;;;;2.65;1.38;;;-2.90;94.30;;;;;;5072591;28;20147;-71
2022/01/21 07:49:50;;;;;;;4.97;1.50;;;-2.90;94.40;;;;;;5071071;28;20489;-69
2022/01/21 07:52:17;;;;;;;3.30;1.02;;;-2.90;94.30;;;;;;5071189;28;20498;-70
2022/01/21 07:54:42;;;;;;;3.97;1.25;;;-2.90;94.30;;;;;;5071794;28;20028;-69
2022/01/21 07:57:10;;;;;;;4.45;2.28;;;-3.00;94.60;;;;;;5071145;28;20054;-74
2022/01/21 07:59:36;;;;;;;5.65;1.20;;;-3.00;94.50;;;;;;5051060;28;20025;-69
2022/01/21 08:02:03;;;;;;;2.00;1.02;;;-2.90;99.90;;;;;;5051976;28;20373;-70
2022/01/21 08:04:28;;;;;;;3.65;1.20;;;-2.20;99.90;;;;;;5051995;28;20029;-71
2022/01/21 08:06:54;;;;;;;1.05;0.95;;;-1.70;99.90;;;;;;5050967;28;20126;-66
2022/01/21 08:09:24;;;;;;;5.93;1.10;;;-1.10;99.90;;;;;;5066165;28;20028;-66
2022/01/21 08:11:51;;;;;;;2.23;1.00;;;-1.30;99.90;;;;;;5072121;28;20031;-67
2022/01/21 08:14:16;;;;;;;3.28;1.30;;;-1.70;96.70;;;;;;5071758;28;20522;-67
2022/01/21 08:16:42;;;;;;;4.00;1.00;;;-2.00;95.10;;;;;;5070174;28;20064;-67
2022/01/21 08:19:08;;;;;;;2.67;0.93;;;-2.20;94.10;;;;;;5071752;28;20107;-67
2022/01/21 08:21:34;;;;;;;2.17;1.00;;;-2.40;94.40;;;;;;5071811;28;20024;-67
2022/01/21 08:24:00;;;;;;;3.75;1.30;;;-2.60;94.30;;;;;;5069780;28;20612;-67
2022/01/21 08:26:28;;;;;;;1.55;1.20;;;-2.60;94.90;;;;;;5070881;28;20074;-67
2022/01/21 08:28:54;;;;;;;1.17;1.08;;;-2.70;94.90;;;;;;5067802;28;20036;-67
2022/01/21 08:31:20;;;;;;;3.95;1.20;;;-2.80;95.00;;;;;;5071512;28;20115;-67
2022/01/21 08:33:46;;;;;;;2.70;1.20;;;-2.80;95.10;;;;;;5071937;28;20380;-67
2022/01/21 08:36:12;;;;;;;3.20;1.77;;;-2.80;95.30;;;;;;5068531;28;20029;-67
2022/01/21 08:38:38;;;;;;;4.88;3.47;;;-2.90;95.30;;;;;;5070861;28;20055;-69
2022/01/21 08:41:04;;;;;;;2.60;1.30;;;-2.90;95.20;;;;;;5071152;28;20426;-73
2022/01/21 08:43:30;;;;;;;1.10;1.00;;;-2.90;95.30;;;;;;5072044;28;20025;-73
2022/01/21 08:45:56;;;;;;;7.63;2.13;;;-2.80;99.90;;;;;;5071722;28;20390;-72
2022/01/21 08:48:22;;;;;;;2.35;1.17;;;-1.60;99.90;;;;;;5071734;28;20020;-72
2022/01/21 08:50:47;;;;;;;2.47;1.10;;;-1.30;99.90;;;;;;5071851;28;20023;-72
2022/01/21 08:55:58;;;;;;;3.80;1.10;;;-2.10;94.90;;;;;;5071986;28;20031;-72
2022/01/21 08:58:25;;;;;;;2.80;1.10;;;-2.40;95.10;;;;;;5072001;28;20021;-72
2022/01/21 09:00:51;;;;;;;1.83;1.10;;;-2.60;95.20;;;;;;5071632;28;20024;-72
2022/01/21 09:03:16;;;;;;;1.30;1.00;;;-2.60;95.50;;;;;;5072052;28;20150;-71
2022/01/21 09:05:48;;;;;;;1.95;1.20;;;-2.70;95.60;;;;;;5070559;28;20387;-72
2022/01/21 09:08:23;;;;;;;3.83;1.20;;;-2.70;95.60;;;;;;5071989;28;20028;-72
2022/01/21 09:10:53;;;;;;;3.28;1.20;;;-2.80;95.60;;;;;;5072596;28;20476;-71
2022/01/21 09:13:21;;;;;;;4.78;1.35;;;-2.80;95.50;;;;;;5074590;28;20085;-71
2022/01/21 09:15:47;;;;;;;3.13;1.20;;;-2.80;95.50;;;;;;5076219;28;20063;-71
2022/01/21 09:18:17;;;;;;;3.42;1.35;;;-2.80;95.40;;;;;;5075680;28;20432;-71
2022/01/21 09:20:43;;;;;;;5.50;1.13;;;-2.90;95.40;;;;;;5075691;28;20021;-71
2022/01/21 09:23:09;;;;;;;5.13;1.35;;;-2.90;95.60;;;;;;5075623;28;20032;-71
2022/01/21 09:25:35;;;;;;;4.90;1.40;;;-2.90;95.70;;;;;;5075567;28;20091;-70
2022/01/21 09:28:01;;;;;;;6.50;1.40;;;-2.80;95.80;;;;;;5075423;28;20033;-71
2022/01/21 09:30:27;;;;;;;5.75;1.30;;;-2.80;95.70;;;;;;5074946;28;20026;-71
2022/01/21 09:32:53;;;;;;;2.80;1.25;;;-2.80;95.40;;;;;;5075360;28;20032;-71
2022/01/21 09:35:19;;;;;;;6.75;1.60;;;-2.80;95.60;;;;;;5075562;28;20032;-71
2022/01/21 09:37:45;;;;;;;2.67;1.30;;;-2.80;95.60;;;;;;5075123;28;20041;-69
2022/01/21 09:40:11;;;;;;;3.25;1.10;;;-1.70;99.90;;;;;;5074730;28;20074;-70
2022/01/21 09:42:38;;;;;;;1.70;1.23;;;-1.50;99.90;;;;;;5075221;28;20024;-69
2022/01/21 09:45:09;;;;;;;3.58;1.40;;;-1.70;97.70;;;;;;5074877;28;20391;-67
2022/01/21 09:47:50;;;;;;;7.50;1.80;;;-1.90;96.20;;;;;;5072201;28;20506;-68
2022/01/21 09:50:20;;;;;;;2.40;1.20;;;-2.00;95.70;;;;;;5074887;28;20574;-68
2022/01/21 09:52:51;;;;;;;5.83;1.37;;;-1.40;99.90;;;;;;5075045;28;20116;-68
2022/01/21 09:55:20;;;;;;;2.65;0.82;;;-1.30;99.90;;;;;;5074621;28;20017;-68
2022/01/21 09:57:52;;;;;;;6.25;1.45;;;-1.50;96.80;;;;;;5074859;28;20483;-72
2022/01/21 10:00:19;;;;;;;5.78;1.33;;;-1.20;99.90;;;;;;5074661;28;20040;-69
2022/01/21 10:02:47;;;;;;;5.15;1.25;;;-1.20;99.90;;;;;;5074080;28;20631;-69
2022/01/21 10:05:13;;;;;;;3.22;1.23;;;-1.30;96.30;;;;;;5069349;28;20017;-70
2022/01/21 10:07:45;;;;;;;1.63;1.20;;;-1.50;94.90;;;;;;5066301;28;20029;-70
2022/01/21 10:10:11;;;;;;;6.35;1.10;;;-1.50;94.70;;;;;;5067081;28;20459;-71
2022/01/21 10:12:43;;;;;;;3.60;1.60;;;-1.60;94.60;;;;;;5073291;28;20056;-70
2022/01/21 10:15:10;;;;;;;6.00;1.60;;;-1.60;94.30;;;;;;5067809;28;20395;-69
2022/01/21 10:17:37;;;;;;;4.57;1.52;;;-1.70;93.90;;;;;;5073428;28;20029;-69
2022/01/21 10:20:17;;;;;;;3.88;1.25;;;-1.70;93.60;;;;;;5073900;28;20536;-69
2022/01/21 10:23:03;;;;;;;9.25;1.35;;;-1.70;93.20;;;;;;5073515;28;20032;-69
2022/01/21 10:25:31;;;;;;;3.22;1.33;;;-1.80;93.20;;;;;;5074729;28;20269;-69
2022/01/21 10:28:10;;;;;;;5.72;1.52;;;-1.80;93.60;;;;;;5074181;28;20086;-69
2022/01/21 10:30:36;;;;;;;6.55;1.77;;;-1.70;93.50;;;;;;5074174;28;20028;-69
2022/01/21 10:33:20;;;;;;;6.70;1.88;;;-1.70;93.40;;;;;;5072954;28;20021;-70
2022/01/21 10:35:51;;;;;;;6.68;1.40;;;-1.70;93.30;;;;;;5072970;28;20028;-68
2022/01/21 10:38:16;;;;;;;5.60;1.40;;;-1.70;93.30;;;;;;5074040;28;20048;-69
2022/01/21 10:40:42;;;;;;;2.03;1.33;;;-1.70;93.10;;;;;;5074303;28;20024;-68
2022/01/21 10:43:18;;;;;;;11.32;2.05;;;-1.70;93.30;;;;;;5074044;28;20021;-68
2022/01/21 10:45:48;;;;;;;2.88;1.60;;;-1.70;93.50;;;;;;5074108;28;20030;-68
2022/01/21 10:48:14;;;;;;;3.28;1.38;;;-1.70;93.40;;;;;;5074004;28;20075;-73
2022/01/21 10:50:40;;;;;;;4.10;1.45;;;-1.60;93.10;;;;;;5067722;28;20531;-70
2022/01/21 10:53:24;;;;;;;3.13;1.40;;;-1.70;93.10;;;;;;5071616;28;20112;-71
2022/01/21 10:55:51;;;;;;;2.33;1.20;;;-1.70;93.00;;;;;;5073308;28;20042;-71
2022/01/21 10:58:20;;;;;;;3.95;1.40;;;-1.70;92.70;;;;;;5073323;28;20036;-71
2022/01/21 11:00:59;;;;;;;6.18;1.30;;;-1.70;92.90;;;;;;5073082;28;20025;-71
2022/01/21 11:03:26;;;;;;;3.72;1.27;;;-1.70;92.70;;;;;;5073392;28;20028;-71
2022/01/21 11:06:17;;;;;;;6.15;1.20;;;-1.70;92.70;;;;;;5073039;28;20513;-72
2022/01/21 11:08:43;;;;;;;2.25;1.10;;;-1.70;92.70;;;;;;5071743;28;20529;-71
2022/01/21 11:11:09;;;;;;;5.25;2.10;;;-1.70;92.50;;;;;;5072564;28;20028;-71
2022/01/21 11:13:37;;;;;;;9.57;1.48;;;-1.70;92.70;;;;;;5068879;28;20067;-71
2022/01/21 11:16:13;;;;;;;6.68;1.40;;;-1.70;92.40;;;;;;5072481;28;20028;-71
2022/01/21 11:18:58;;;;;;;9.82;1.65;;;-1.70;92.40;;;;;;5073023;28;20120;-71
2022/01/21 11:21:37;;;;;;;5.43;1.17;;;-1.70;92.70;;;;;;5072996;28;20017;-70
2022/01/21 11:24:05;;;;;;;4.50;1.15;;;-1.60;92.50;;;;;;5071558;28;20040;-71
2022/01/21 11:26:31;;;;;;;4.78;1.40;;;-1.70;91.80;;;;;;5072816;28;20034;-71
2022/01/21 11:28:57;;;;;;;3.70;1.40;;;-1.70;91.80;;;;;;5072599;28;20020;-70
2022/01/21 11:31:27;;;;;;;2.97;1.25;;;-1.70;91.90;;;;;;5072759;28;20062;-70
2022/01/21 11:33:53;;;;;;;5.10;1.30;;;-1.70;91.70;;;;;;5072230;28;20037;-71
2022/01/21 11:36:19;;;;;;;6.35;1.88;;;-1.70;91.70;;;;;;5072612;28;20082;-71
2022/01/21 11:38:45;;;;;;;2.45;1.25;;;-1.70;91.80;;;;;;5072559;28;20070;-69
2022/01/21 11:41:16;;;;;;;4.55;1.58;;;-1.80;91.50;;;;;;5072196;28;20020;-69
2022/01/21 11:43:50;;;;;;;3.85;1.20;;;-1.80;91.80;;;;;;5072635;28;20566;-69
2022/01/21 11:46:20;;;;;;;3.35;1.42;;;-1.80;92.00;;;;;;5071436;28;20031;-73
2022/01/21 11:48:56;;;;;;;4.25;1.40;;;-1.80;91.90;;;;;;5071885;28;20063;-73
2022/01/21 11:51:36;;;;;;;4.18;1.42;;;-1.80;92.00;;;;;;5069074;28;20099;-72
2022/01/21 11:54:05;;;;;;;8.13;1.55;;;-1.70;91.80;;;;;;5063557;28;20036;-77
2022/01/21 11:56:43;;;;;;;7.88;1.75;;;-1.80;91.60;;;;;;5071573;28;20112;-74
2022/01/21 12:01:59;;;;;;;10.93;4.15;;;-1.80;91.60;;;;;;5066833;28;20111;-76
2022/01/21 12:04:30;;;;;;;23.27;9.48;;;-1.90;91.40;;;;;;5071960;28;20028;-76
2022/01/21 12:06:57;;;;;;;6.63;3.55;;;-1.90;91.70;;;;;;5073675;28;20021;-73
2022/01/21 12:09:55;;;;;;;5.95;1.90;;;-1.80;92.00;;;;;;5072341;28;20028;-72
2022/01/21 12:12:23;;;;;;;5.05;1.58;;;-1.80;91.80;;;;;;5072022;28;20479;-72
2022/01/21 12:14:55;;;;;;;4.55;1.95;;;-1.60;99.40;;;;;;5070512;28;20561;-73
2022/01/21 12:17:43;;;;;;;4.72;1.60;;;-1.50;95.50;;;;;;5071723;28;20500;-72
2022/01/21 12:20:10;;;;;;;4.82;1.50;;;-1.60;93.00;;;;;;5071734;28;20040;-75
2022/01/21 12:22:36;;;;;;;4.43;1.30;;;-1.60;92.50;;;;;;5072429;28;20392;-75
2022/01/21 12:25:07;;;;;;;5.47;1.45;;;-1.70;91.80;;;;;;5072480;28;20025;-75
2022/01/21 12:27:33;;;;;;;1.48;1.02;;;-1.80;91.60;;;;;;5072134;28;20166;-74
2022/01/21 12:30:18;;;;;;;2.25;1.25;;;-1.90;91.60;;;;;;5071852;28;20503;-76
2022/01/21 12:32:52;;;;;;;2.75;1.45;;;-1.20;99.90;;;;;;5071918;28;20036;-74
2022/01/21 12:35:19;;;;;;;3.72;1.10;;;-0.40;99.90;;;;;;5072053;28;20032;-74
2022/01/21 12:41:00;;;;;;;3.28;1.10;;;-1.00;92.40;;;;;;5072087;28;20042;-74
2022/01/21 12:43:39;;;;;;;4.07;2.00;;;-1.40;92.00;;;;;;5071911;28;20357;-74
2022/01/21 12:46:08;;;;;;;4.93;1.48;;;-1.50;92.00;;;;;;5071254;28;20028;-74
2022/01/21 12:48:35;;;;;;;5.03;1.27;;;-1.60;91.70;;;;;;5072081;28;20017;-74
2022/01/21 12:51:16;;;;;;;2.63;1.10;;;-1.70;91.90;;;;;;5071914;28;20111;-74
2022/01/21 12:56:54;;;;;;;4.50;1.70;;;-1.90;91.80;;;;;;5071919;28;20034;-70
2022/01/21 12:59:19;;;;;;;34.88;12.82;;;-1.90;92.00;;;;;;5071737;28;20028;-71
2022/01/21 13:01:46;;;;;;;16.92;8.27;;;-2.00;92.00;;;;;;5069269;28;20023;-69
2022/01/21 13:04:18;;;;;;;12.10;7.45;;;-1.80;99.10;;;;;;5069957;28;20112;-70
2022/01/21 13:07:08;;;;;;;4.55;2.05;;;-1.80;94.20;;;;;;5071161;28;20027;-70
2022/01/21 13:10:12;;;;;;;3.42;1.20;;;-2.00;92.70;;;;;;5071220;28;20146;-70
2022/01/21 13:13:01;;;;;;;6.78;1.50;;;-2.10;92.50;;;;;;5070701;28;20033;-70
2022/01/21 13:15:49;;;;;;;5.82;1.23;;;-2.10;92.70;;;;;;5070312;28;20025;-68
2022/01/21 13:18:22;;;;;;;2.17;1.45;;;-2.20;92.80;;;;;;5073200;28;20809;-68
2022/01/21 13:20:51;;;;;;;2.45;1.13;;;-2.30;92.80;;;;;;5071189;28;20024;-68
2022/01/21 13:23:30;;;;;;;3.88;1.25;;;-2.40;92.70;;;;;;5071120;28;20074;-67
2022/01/21 13:26:18;;;;;;;3.15;1.67;;;-2.40;92.80;;;;;;5071031;28;20503;-67
2022/01/21 13:29:05;;;;;;;1.98;1.00;;;-2.40;92.60;;;;;;5071176;28;20472;-67
2022/01/21 13:31:51;;;;;;;1.20;1.02;;;-2.40;92.40;;;;;;5071450;28;20033;-71
2022/01/21 13:34:41;;;;;;;2.72;1.27;;;-2.50;92.50;;;;;;5065369;28;20029;-79
2022/01/21 13:37:09;;;;;;;4.53;1.23;;;-2.50;92.80;;;;;;5060001;28;20115;-70
2022/01/21 13:39:38;;;;;;;1.48;1.10;;;-2.50;92.60;;;;;;5070132;28;20025;-69
2022/01/21 13:42:09;;;;;;;1.80;1.17;;;-2.00;99.90;;;;;;5070512;28;20031;-70
2022/01/21 13:44:49;;;;;;;1.27;0.82;;;-1.80;99.90;;;;;;5071723;28;20043;-69
2022/01/21 13:47:31;;;;;;;5.43;1.65;;;-2.10;94.70;;;;;;5071015;28;20444;-70
2022/01/21 13:50:05;;;;;;;3.22;1.27;;;-2.40;93.40;;;;;;5070762;28;20104;-69
2022/01/21 13:52:53;;;;;;;3.15;1.42;;;-2.50;93.70;;;;;;5070840;28;20021;-70
2022/01/21 13:55:38;;;;;;;4.63;1.50;;;-2.70;93.50;;;;;;5070426;28;20034;-70
2022/01/21 13:58:06;;;;;;;3.88;1.27;;;-2.80;93.80;;;;;;5071718;28;20039;-70
2022/01/21 14:00:57;;;;;;;2.38;1.27;;;-2.90;93.90;;;;;;5074140;28;20020;-70
2022/01/21 14:03:31;;;;;;;3.28;1.42;;;-3.00;94.00;;;;;;5073001;28;20099;-70
2022/01/21 14:06:14;;;;;;;1.42;1.15;;;-3.00;94.30;;;;;;5074685;28;20025;-70
2022/01/21 14:08:42;;;;;;;6.03;1.25;;;-3.00;94.30;;;;;;5054827;28;20033;-70
2022/01/21 14:11:15;;;;;;;3.30;1.48;;;-3.10;94.20;;;;;;5054626;28;20032;-70
2022/01/21 14:13:49;;;;;;;4.13;1.33;;;-3.10;94.40;;;;;;5058986;28;20091;-70
2022/01/21 14:16:47;;;;;;;2.90;1.30;;;-3.20;94.20;;;;;;5073264;28;20027;-70
2022/01/21 14:19:15;;;;;;;3.28;1.20;;;-3.30;94.40;;;;;;5072595;28;20055;-70
2022/01/21 14:21:42;;;;;;;7.25;1.20;;;-3.30;94.60;;;;;;5072400;28;20376;-70
2022/01/21 14:24:18;;;;;;;3.00;1.63;;;-3.30;94.80;;;;;;5073930;28;20082;-71
2022/01/21 14:26:48;;;;;;;2.78;1.27;;;-3.40;94.50;;;;;;5073714;28;20016;-71
2022/01/21 14:29:15;;;;;;;4.15;1.58;;;-3.40;94.80;;;;;;5073914;28;20027;-71
2022/01/21 14:31:44;;;;;;;2.97;1.10;;;-3.40;94.90;;;;;;5073750;28;20056;-75
2022/01/21 14:34:19;;;;;;;4.20;1.33;;;-3.50;94.90;;;;;;5073871;28;20150;-75
2022/01/21 14:37:07;;;;;;;1.58;1.30;;;-3.50;95.00;;;;;;5071134;28;20045;-74
2022/01/21 14:39:45;;;;;;;1.67;1.35;;;-3.40;95.20;;;;;;5074140;28;20517;-75
2022/01/21 14:42:26;;;;;;;7.40;1.33;;;-3.50;95.00;;;;;;5074297;28;20460;-75
2022/01/21 14:44:55;;;;;;;5.90;1.70;;;-3.50;95.00;;;;;;5074495;28;20031;-75
2022/01/21 14:47:31;;;;;;;2.70;1.45;;;-3.60;95.10;;;;;;5073846;28;20063;-75
2022/01/21 14:50:05;;;;;;;5.65;1.52;;;-3.60;95.20;;;;;;5073651;28;20021;-73
2022/01/21 14:52:51;;;;;;;3.05;1.40;;;-3.60;95.40;;;;;;5072126;28;20368;-73
2022/01/21 14:55:33;;;;;;;3.35;1.63;;;-3.70;95.40;;;;;;5063292;28;20025;-75
2022/01/21 14:58:14;;;;;;;4.72;1.55;;;-3.70;95.60;;;;;;5066243;28;20017;-76
2022/01/21 15:00:45;;;;;;;4.18;1.20;;;-3.70;95.60;;;;;;5065876;28;20031;-75